createdAt,value
2016-12-06T00:01:00.284Z,0
2016-12-06T00:02:08.967Z,0
2016-12-06T00:03:17.659Z,0
2016-12-06T00:04:26.338Z,0
2016-12-06T00:05:35.022Z,0
2016-12-06T00:06:43.705Z,0
2016-12-06T00:07:52.492Z,0
2016-12-06T00:09:01.174Z,0
2016-12-06T00:10:09.879Z,0
2016-12-06T00:11:19.196Z,0
2016-12-06T00:12:27.877Z,0
2016-12-06T00:13:36.564Z,0
2016-12-06T00:14:45.280Z,0
2016-12-06T00:15:53.962Z,0
2016-12-06T00:17:02.643Z,0
2016-12-06T00:18:11.328Z,0
2016-12-06T00:19:20.008Z,0
2016-12-06T00:20:28.694Z,0
2016-12-06T00:21:37.380Z,0
2016-12-06T00:22:46.388Z,0
2016-12-06T00:23:55.073Z,0
2016-12-06T00:25:03.754Z,0
2016-12-06T00:26:12.436Z,0
2016-12-06T00:27:21.113Z,0
2016-12-06T00:28:29.791Z,0
2016-12-06T00:29:38.476Z,0
2016-12-06T00:30:47.156Z,0
2016-12-06T00:31:55.839Z,0
2016-12-06T00:33:04.523Z,0
2016-12-06T00:34:13.207Z,0
2016-12-06T00:35:21.888Z,0
2016-12-06T00:36:30.575Z,0
2016-12-06T00:37:39.256Z,0
2016-12-06T00:38:47.939Z,0
2016-12-06T00:39:56.621Z,0
2016-12-06T00:41:05.303Z,0
2016-12-06T00:42:13.987Z,0
2016-12-06T00:43:22.669Z,0
2016-12-06T00:44:31.360Z,0
2016-12-06T00:45:40.046Z,0
2016-12-06T00:46:48.727Z,0
2016-12-06T00:47:57.785Z,0
2016-12-06T00:49:06.787Z,0
2016-12-06T00:50:15.475Z,0
2016-12-06T00:51:24.479Z,0
2016-12-06T00:52:33.163Z,0
2016-12-06T00:53:41.847Z,0
2016-12-06T00:54:50.876Z,0
2016-12-06T00:55:59.565Z,0
2016-12-06T00:57:08.259Z,0
2016-12-06T00:58:16.939Z,0
2016-12-06T00:59:25.621Z,0
2016-12-06T01:00:34.301Z,0
2016-12-06T01:01:42.986Z,0
2016-12-06T01:02:51.661Z,0
2016-12-06T01:04:00.350Z,0
2016-12-06T01:05:09.037Z,0
2016-12-06T01:06:17.716Z,0
2016-12-06T01:07:26.718Z,0
2016-12-06T01:08:35.397Z,0
2016-12-06T01:09:44.076Z,0
2016-12-06T01:10:52.753Z,0
2016-12-06T01:12:01.434Z,0
2016-12-06T01:13:10.113Z,0
2016-12-06T01:14:19.120Z,0
2016-12-06T01:15:27.803Z,0
2016-12-06T01:16:36.496Z,0
2016-12-06T01:17:45.179Z,0
2016-12-06T01:18:53.888Z,0
2016-12-06T01:20:02.574Z,0
2016-12-06T01:21:11.287Z,0
2016-12-06T01:22:19.969Z,0
2016-12-06T01:23:28.663Z,0
2016-12-06T01:24:37.348Z,0
2016-12-06T01:25:46.061Z,0
2016-12-06T01:26:54.765Z,0
2016-12-06T01:28:03.444Z,0
2016-12-06T01:29:12.125Z,0
2016-12-06T01:30:20.813Z,0
2016-12-06T01:31:29.493Z,0
2016-12-06T01:32:38.182Z,0
2016-12-06T01:33:46.869Z,0
2016-12-06T01:34:55.553Z,0
2016-12-06T01:36:04.237Z,0
2016-12-06T01:37:12.918Z,0
2016-12-06T01:38:21.624Z,0
2016-12-06T01:39:30.305Z,0
2016-12-06T01:40:38.990Z,0
2016-12-06T01:41:47.673Z,0
2016-12-06T01:42:56.351Z,0
2016-12-06T01:44:05.066Z,0
2016-12-06T01:45:13.753Z,0
2016-12-06T01:46:22.435Z,0
2016-12-06T01:47:31.113Z,0
2016-12-06T01:48:39.808Z,0
2016-12-06T01:49:48.512Z,0
2016-12-06T01:50:57.192Z,0
2016-12-06T01:52:06.191Z,0
2016-12-06T01:53:14.873Z,0
2016-12-06T01:54:23.552Z,0
2016-12-06T01:55:32.240Z,0
2016-12-06T01:56:40.921Z,0
2016-12-06T01:57:49.599Z,0
2016-12-06T01:58:58.283Z,0
2016-12-06T02:00:06.973Z,0
2016-12-06T02:01:15.656Z,0
2016-12-06T02:02:24.335Z,0
2016-12-06T02:03:33.013Z,0
2016-12-06T02:04:41.693Z,0
2016-12-06T02:05:50.370Z,0
2016-12-06T02:06:59.055Z,0
2016-12-06T02:08:07.765Z,0
2016-12-06T02:09:16.455Z,0
2016-12-06T02:10:25.144Z,0
2016-12-06T02:11:33.824Z,0
2016-12-06T02:12:42.504Z,0
2016-12-06T02:13:51.194Z,0
2016-12-06T02:14:59.878Z,0
2016-12-06T02:16:08.564Z,0
2016-12-06T02:17:17.241Z,0
2016-12-06T02:18:25.932Z,0
2016-12-06T02:19:34.615Z,0
2016-12-06T02:20:43.294Z,0
2016-12-06T02:21:51.977Z,0
2016-12-06T02:23:00.660Z,0
2016-12-06T02:24:09.346Z,0
2016-12-06T02:25:18.659Z,0
2016-12-06T02:26:27.339Z,0
2016-12-06T02:27:36.022Z,0
2016-12-06T02:28:44.700Z,0
2016-12-06T02:29:53.386Z,0
2016-12-06T02:31:02.068Z,0
2016-12-06T02:32:10.752Z,0
2016-12-06T02:33:19.436Z,0
2016-12-06T02:34:28.125Z,0
2016-12-06T02:35:36.807Z,0
2016-12-06T02:36:45.489Z,0
2016-12-06T02:37:54.173Z,0
2016-12-06T02:39:02.856Z,0
2016-12-06T02:40:11.534Z,0
2016-12-06T02:41:20.214Z,0
2016-12-06T02:42:28.898Z,0
2016-12-06T02:43:37.580Z,0
2016-12-06T02:44:46.260Z,0
2016-12-06T02:45:54.973Z,0
2016-12-06T02:47:03.652Z,0
2016-12-06T02:48:12.330Z,0
2016-12-06T02:49:21.016Z,0
2016-12-06T02:50:29.696Z,0
2016-12-06T02:51:38.382Z,0
2016-12-06T02:52:47.060Z,0
2016-12-06T02:53:55.740Z,0
2016-12-06T02:55:04.746Z,0
2016-12-06T02:56:13.437Z,0
2016-12-06T02:57:22.120Z,0
2016-12-06T02:58:30.801Z,0
2016-12-06T02:59:39.483Z,0
2016-12-06T03:00:48.164Z,0
2016-12-06T03:01:56.844Z,0
2016-12-06T03:03:05.526Z,0
2016-12-06T03:04:14.207Z,0
2016-12-06T03:05:23.209Z,0
2016-12-06T03:06:31.885Z,0
2016-12-06T03:07:40.567Z,0
2016-12-06T03:08:49.254Z,0
2016-12-06T03:09:57.937Z,0
2016-12-06T03:11:06.770Z,0
2016-12-06T03:12:15.451Z,0
2016-12-06T03:13:24.137Z,0
2016-12-06T03:14:32.824Z,0
2016-12-06T03:15:41.504Z,0
2016-12-06T03:16:50.184Z,0
2016-12-06T03:17:58.871Z,0
2016-12-06T03:19:07.553Z,0
2016-12-06T03:20:16.558Z,0
2016-12-06T03:21:25.240Z,0
2016-12-06T03:22:34.293Z,0
2016-12-06T03:23:42.975Z,0
2016-12-06T03:24:51.660Z,0
2016-12-06T03:26:00.363Z,0
2016-12-06T03:27:09.045Z,0
2016-12-06T03:28:18.042Z,0
2016-12-06T03:29:26.722Z,0
2016-12-06T03:30:35.405Z,0
2016-12-06T03:31:44.090Z,0
2016-12-06T03:32:52.769Z,0
2016-12-06T03:34:01.451Z,0
2016-12-06T03:35:10.136Z,0
2016-12-06T03:36:18.812Z,0
2016-12-06T03:37:27.496Z,0
2016-12-06T03:38:36.177Z,0
2016-12-06T03:39:44.861Z,0
2016-12-06T03:40:53.852Z,0
2016-12-06T03:42:02.849Z,0
2016-12-06T03:43:11.528Z,0
2016-12-06T03:44:20.531Z,0
2016-12-06T03:45:29.211Z,0
2016-12-06T03:46:38.210Z,0
2016-12-06T03:47:46.892Z,0
2016-12-06T03:48:55.578Z,0
2016-12-06T03:50:04.581Z,0
2016-12-06T03:51:13.265Z,0
2016-12-06T03:52:21.952Z,0
2016-12-06T03:53:30.634Z,0
2016-12-06T03:54:39.317Z,0
2016-12-06T03:55:48.032Z,0
2016-12-06T03:56:56.715Z,0
2016-12-06T03:58:05.404Z,0
2016-12-06T03:59:14.086Z,0
2016-12-06T04:00:22.770Z,0
2016-12-06T04:01:31.452Z,0
2016-12-06T04:02:40.133Z,0
2016-12-06T04:03:48.817Z,0
2016-12-06T04:04:57.504Z,0
2016-12-06T04:06:06.181Z,0
2016-12-06T04:07:14.873Z,0
2016-12-06T04:08:23.557Z,0
2016-12-06T04:09:32.238Z,0
2016-12-06T04:10:40.921Z,0
2016-12-06T04:11:49.607Z,0
2016-12-06T04:12:58.287Z,0
2016-12-06T04:14:06.977Z,0
2016-12-06T04:15:15.655Z,0
2016-12-06T04:16:24.337Z,0
2016-12-06T04:17:33.018Z,0
2016-12-06T04:18:41.697Z,0
2016-12-06T04:19:50.379Z,0
2016-12-06T04:20:59.070Z,0
2016-12-06T04:22:07.752Z,0
2016-12-06T04:23:16.432Z,0
2016-12-06T04:24:25.114Z,0
2016-12-06T04:25:33.797Z,0
2016-12-06T04:26:42.480Z,0
2016-12-06T04:27:51.162Z,0
2016-12-06T04:28:59.840Z,0
2016-12-06T04:30:08.526Z,0
2016-12-06T04:31:17.531Z,0
2016-12-06T04:32:26.218Z,0
2016-12-06T04:33:34.903Z,0
2016-12-06T04:34:43.589Z,0
2016-12-06T04:35:52.271Z,0
2016-12-06T04:37:00.959Z,0
2016-12-06T04:38:09.642Z,0
2016-12-06T04:39:18.330Z,0
2016-12-06T04:40:27.017Z,0
2016-12-06T04:41:35.702Z,0
2016-12-06T04:42:44.392Z,0
2016-12-06T04:43:53.387Z,0
2016-12-06T04:45:02.069Z,0
2016-12-06T04:46:10.751Z,0
2016-12-06T04:47:19.434Z,0
2016-12-06T04:48:28.115Z,0
2016-12-06T04:49:36.800Z,0
2016-12-06T04:50:45.484Z,0
2016-12-06T04:51:54.487Z,0
2016-12-06T04:53:03.167Z,0
2016-12-06T04:54:11.854Z,0
2016-12-06T04:55:20.561Z,0
2016-12-06T04:56:29.247Z,0
2016-12-06T04:57:37.929Z,0
2016-12-06T04:58:46.924Z,0
2016-12-06T04:59:55.608Z,0
2016-12-06T05:01:04.297Z,0
2016-12-06T05:02:12.973Z,0
2016-12-06T05:03:21.662Z,0
2016-12-06T05:04:30.351Z,0
2016-12-06T05:05:39.115Z,0
2016-12-06T05:06:47.817Z,0
2016-12-06T05:07:56.497Z,0
2016-12-06T05:09:05.180Z,0
2016-12-06T05:10:13.861Z,0
2016-12-06T05:11:22.548Z,0
2016-12-06T05:12:31.232Z,0
2016-12-06T05:13:39.912Z,0
2016-12-06T05:14:48.596Z,0
2016-12-06T05:15:57.278Z,0
2016-12-06T05:17:05.963Z,0
2016-12-06T05:18:14.648Z,0
2016-12-06T05:19:23.334Z,0
2016-12-06T05:20:32.022Z,0
2016-12-06T05:21:40.707Z,0
2016-12-06T05:22:49.390Z,0
2016-12-06T05:23:58.070Z,0
2016-12-06T05:25:06.757Z,0
2016-12-06T05:26:15.448Z,0
2016-12-06T05:27:24.133Z,0
2016-12-06T05:28:32.816Z,0
2016-12-06T05:29:41.502Z,0
2016-12-06T05:30:50.186Z,0
2016-12-06T05:31:58.869Z,0
2016-12-06T05:33:07.552Z,0
2016-12-06T05:34:16.240Z,0
2016-12-06T05:35:24.921Z,0
2016-12-06T05:36:33.603Z,0
2016-12-06T05:37:42.288Z,0
2016-12-06T05:38:50.975Z,0
2016-12-06T05:39:59.659Z,0
2016-12-06T05:41:08.347Z,0
2016-12-06T05:42:17.069Z,0
2016-12-06T05:43:25.756Z,0
2016-12-06T05:44:34.433Z,0
2016-12-06T05:45:43.115Z,0
2016-12-06T05:46:51.797Z,0
2016-12-06T05:48:00.800Z,0
2016-12-06T05:49:09.483Z,0
2016-12-06T05:50:18.171Z,0
2016-12-06T05:51:26.850Z,0
2016-12-06T05:52:35.848Z,0
2016-12-06T05:53:44.535Z,0
2016-12-06T05:54:53.224Z,0
2016-12-06T05:56:01.932Z,0
2016-12-06T05:57:10.616Z,0
2016-12-06T05:58:19.303Z,0
2016-12-06T05:59:28.306Z,0
2016-12-06T06:00:36.992Z,0
2016-12-06T06:01:45.673Z,0
2016-12-06T06:02:54.357Z,0
2016-12-06T06:04:03.040Z,0
2016-12-06T06:05:11.726Z,0
2016-12-06T06:06:20.726Z,0
2016-12-06T06:07:29.434Z,0
2016-12-06T06:08:38.121Z,0
2016-12-06T06:09:46.832Z,0
2016-12-06T06:10:55.516Z,0
2016-12-06T06:12:04.204Z,0
2016-12-06T06:13:12.888Z,0
2016-12-06T06:14:21.573Z,0
2016-12-06T06:15:30.251Z,0
2016-12-06T06:16:38.933Z,0
2016-12-06T06:17:47.611Z,0
2016-12-06T06:18:56.296Z,0
2016-12-06T06:20:05.301Z,0
2016-12-06T06:21:14.308Z,0
2016-12-06T06:22:22.989Z,0
2016-12-06T06:23:31.673Z,0
2016-12-06T06:24:40.357Z,0
2016-12-06T06:25:49.044Z,0
2016-12-06T06:26:57.729Z,0
2016-12-06T06:28:06.412Z,0
2016-12-06T06:29:15.097Z,0
2016-12-06T06:30:23.781Z,0
2016-12-06T06:31:32.463Z,0
2016-12-06T06:32:41.146Z,0
2016-12-06T06:33:49.827Z,0
2016-12-06T06:34:58.823Z,0
2016-12-06T06:36:07.504Z,0
2016-12-06T06:37:16.199Z,0
2016-12-06T06:38:24.905Z,0
2016-12-06T06:39:33.586Z,0
2016-12-06T06:40:42.298Z,0
2016-12-06T06:41:50.982Z,0
2016-12-06T06:42:59.720Z,0
2016-12-06T06:44:08.411Z,0
2016-12-06T06:45:17.108Z,0
2016-12-06T06:46:25.806Z,0
2016-12-06T06:47:34.495Z,0
2016-12-06T06:48:43.176Z,0
2016-12-06T06:49:51.855Z,0
2016-12-06T06:51:00.540Z,0
2016-12-06T06:52:09.221Z,0
2016-12-06T06:53:17.936Z,0
2016-12-06T06:54:26.950Z,0
2016-12-06T06:55:35.631Z,0
2016-12-06T06:56:44.315Z,0
2016-12-06T06:57:52.993Z,0
2016-12-06T06:59:01.675Z,0
2016-12-06T07:00:10.355Z,0
2016-12-06T07:01:19.047Z,0
2016-12-06T07:02:27.732Z,0
2016-12-06T07:03:36.417Z,0
2016-12-06T07:04:45.102Z,0
2016-12-06T07:05:53.781Z,0
2016-12-06T07:07:02.464Z,0
2016-12-06T07:08:11.146Z,0
2016-12-06T07:09:19.855Z,0
2016-12-06T07:10:28.536Z,0
2016-12-06T07:11:37.219Z,0
2016-12-06T07:12:45.902Z,0
2016-12-06T07:13:54.579Z,0
2016-12-06T07:15:03.259Z,0
2016-12-06T07:16:11.945Z,0
2016-12-06T07:17:20.628Z,0
2016-12-06T07:18:29.305Z,0
2016-12-06T07:19:37.984Z,0
2016-12-06T07:20:46.664Z,0
2016-12-06T07:21:55.678Z,0
2016-12-06T07:23:04.994Z,0
2016-12-06T07:24:13.674Z,0
2016-12-06T07:25:22.362Z,0
2016-12-06T07:26:31.051Z,0
2016-12-06T07:27:39.732Z,0
2016-12-06T07:28:48.726Z,0
2016-12-06T07:29:57.407Z,0
2016-12-06T07:31:06.096Z,0
2016-12-06T07:32:14.782Z,0
2016-12-06T07:33:23.467Z,0
2016-12-06T07:34:32.151Z,0
2016-12-06T07:35:40.834Z,0
2016-12-06T07:36:49.836Z,0
2016-12-06T07:37:58.521Z,0
2016-12-06T07:39:07.204Z,0
2016-12-06T07:40:16.239Z,0
2016-12-06T07:41:24.922Z,0
2016-12-06T07:42:33.603Z,0
2016-12-06T07:43:42.284Z,0
2016-12-06T07:44:50.967Z,0
2016-12-06T07:45:59.646Z,0
2016-12-06T07:47:08.333Z,0
2016-12-06T07:48:17.026Z,0
2016-12-06T07:49:25.713Z,0
2016-12-06T07:50:34.395Z,0
2016-12-06T07:51:43.081Z,5
2016-12-06T07:52:51.768Z,5
2016-12-06T07:54:00.452Z,5
2016-12-06T07:55:09.459Z,5
2016-12-06T07:56:18.146Z,5
2016-12-06T07:57:26.829Z,5
2016-12-06T07:58:35.513Z,5
2016-12-06T07:59:44.200Z,5
2016-12-06T08:00:52.882Z,5
2016-12-06T08:02:01.582Z,5
2016-12-06T08:03:10.578Z,5
2016-12-06T08:04:19.260Z,5
2016-12-06T08:05:27.950Z,5
2016-12-06T08:06:36.633Z,5
2016-12-06T08:07:45.322Z,5
2016-12-06T08:08:54.006Z,5
2016-12-06T08:10:02.807Z,5
2016-12-06T08:11:11.499Z,5
2016-12-06T08:12:20.185Z,5
2016-12-06T08:13:28.870Z,5
2016-12-06T08:14:37.601Z,10
2016-12-06T08:15:46.283Z,10
2016-12-06T08:16:54.967Z,10
2016-12-06T08:18:03.678Z,10
2016-12-06T08:19:12.371Z,10
2016-12-06T08:20:21.052Z,10
2016-12-06T08:21:29.736Z,10
2016-12-06T08:22:38.453Z,10
2016-12-06T08:23:47.171Z,10
2016-12-06T08:24:55.854Z,10
2016-12-06T08:26:04.861Z,15
2016-12-06T08:27:13.863Z,15
2016-12-06T08:28:22.544Z,15
2016-12-06T08:29:31.228Z,15
2016-12-06T08:30:39.912Z,15
2016-12-06T08:31:48.598Z,15
2016-12-06T08:32:57.281Z,15
2016-12-06T08:34:05.967Z,15
2016-12-06T08:35:14.647Z,15
2016-12-06T08:36:23.329Z,15
2016-12-06T08:37:32.008Z,20
2016-12-06T08:38:40.698Z,20
2016-12-06T08:39:49.414Z,20
2016-12-06T08:40:58.103Z,20
2016-12-06T08:42:06.791Z,20
2016-12-06T08:43:15.473Z,20
2016-12-06T08:44:24.156Z,20
2016-12-06T08:45:32.839Z,25
2016-12-06T08:46:41.533Z,25
2016-12-06T08:47:50.220Z,25
2016-12-06T08:48:58.924Z,25
2016-12-06T08:50:07.605Z,25
2016-12-06T08:51:16.320Z,25
2016-12-06T08:52:25.030Z,25
2016-12-06T08:53:33.716Z,25
2016-12-06T08:54:42.397Z,30
2016-12-06T08:55:51.077Z,30
2016-12-06T08:56:59.764Z,30
2016-12-06T08:58:08.447Z,30
2016-12-06T08:59:17.134Z,30
2016-12-06T09:00:25.813Z,35
2016-12-06T09:01:34.493Z,35
2016-12-06T09:02:43.175Z,35
2016-12-06T09:03:51.853Z,35
2016-12-06T09:05:00.537Z,40
2016-12-06T09:06:09.224Z,40
2016-12-06T09:07:17.908Z,40
2016-12-06T09:08:26.596Z,45
2016-12-06T09:09:35.278Z,45
2016-12-06T09:10:43.982Z,45
2016-12-06T09:11:52.663Z,45
2016-12-06T09:13:01.344Z,50
2016-12-06T09:14:10.028Z,50
2016-12-06T09:15:18.776Z,50
2016-12-06T09:16:27.465Z,50
2016-12-06T09:17:36.149Z,50
2016-12-06T09:18:44.862Z,55
2016-12-06T09:19:53.544Z,55
2016-12-06T09:21:02.229Z,55
2016-12-06T09:22:10.917Z,55
2016-12-06T09:23:19.606Z,55
2016-12-06T09:24:28.287Z,55
2016-12-06T09:25:36.971Z,60
2016-12-06T09:26:45.690Z,60
2016-12-06T09:27:54.382Z,60
2016-12-06T09:29:03.070Z,60
2016-12-06T09:30:11.751Z,60
2016-12-06T09:31:20.433Z,60
2016-12-06T09:32:29.118Z,65
2016-12-06T09:33:37.807Z,65
2016-12-06T09:34:46.490Z,65
2016-12-06T09:35:55.172Z,65
2016-12-06T09:37:03.868Z,65
2016-12-06T09:38:12.552Z,65
2016-12-06T09:39:21.240Z,70
2016-12-06T09:40:29.922Z,70
2016-12-06T09:41:38.606Z,70
2016-12-06T09:42:47.289Z,75
2016-12-06T09:43:55.972Z,75
2016-12-06T09:45:04.666Z,75
2016-12-06T09:46:13.351Z,75
2016-12-06T09:47:22.032Z,80
2016-12-06T09:48:30.722Z,80
2016-12-06T09:49:39.407Z,80
2016-12-06T09:50:48.091Z,80
2016-12-06T09:51:56.783Z,85
2016-12-06T09:53:05.494Z,85
2016-12-06T09:54:14.176Z,85
2016-12-06T09:55:22.865Z,85
2016-12-06T09:56:31.553Z,85
2016-12-06T09:57:40.256Z,85
2016-12-06T09:58:48.943Z,90
2016-12-06T09:59:57.625Z,90
2016-12-06T10:01:06.614Z,90
2016-12-06T10:02:15.299Z,90
2016-12-06T10:03:23.985Z,90
2016-12-06T10:04:32.697Z,85
2016-12-06T10:05:41.379Z,85
2016-12-06T10:06:50.095Z,85
2016-12-06T10:07:58.781Z,85
2016-12-06T10:09:07.462Z,85
2016-12-06T10:10:16.151Z,90
2016-12-06T10:11:24.839Z,90
2016-12-06T10:12:33.515Z,90
2016-12-06T10:13:42.199Z,90
2016-12-06T10:14:50.886Z,90
2016-12-06T10:15:59.595Z,90
2016-12-06T10:17:08.316Z,90
2016-12-06T10:18:16.999Z,90
2016-12-06T10:19:25.682Z,90
2016-12-06T10:20:34.366Z,90
2016-12-06T10:21:43.359Z,95
2016-12-06T10:22:52.047Z,95
2016-12-06T10:24:00.735Z,95
2016-12-06T10:25:09.420Z,95
2016-12-06T10:26:18.111Z,95
2016-12-06T10:27:26.787Z,95
2016-12-06T10:28:35.787Z,100
2016-12-06T10:29:44.815Z,100
2016-12-06T10:30:53.499Z,110
2016-12-06T10:32:02.193Z,115
2016-12-06T10:33:10.876Z,120
2016-12-06T10:34:19.527Z,125
2016-12-06T10:35:28.208Z,125
2016-12-06T10:36:37.204Z,125
2016-12-06T10:37:45.911Z,130
2016-12-06T10:38:54.594Z,130
2016-12-06T10:40:03.274Z,135
2016-12-06T10:41:11.958Z,135
2016-12-06T10:42:20.639Z,135
2016-12-06T10:43:29.347Z,135
2016-12-06T10:44:38.051Z,140
2016-12-06T10:45:46.755Z,140
2016-12-06T10:46:55.469Z,145
2016-12-06T10:48:04.179Z,150
2016-12-06T10:49:12.867Z,155
2016-12-06T10:50:21.573Z,155
2016-12-06T10:51:30.293Z,155
2016-12-06T10:52:38.979Z,155
2016-12-06T10:53:47.668Z,165
2016-12-06T10:54:56.700Z,185
2016-12-06T10:56:05.386Z,190
2016-12-06T10:57:14.066Z,205
2016-12-06T10:58:22.754Z,200
2016-12-06T10:59:31.443Z,190
2016-12-06T11:00:40.128Z,180
2016-12-06T11:01:48.820Z,140
2016-12-06T11:02:57.504Z,140
2016-12-06T11:04:06.198Z,160
2016-12-06T11:05:14.890Z,160
2016-12-06T11:06:23.580Z,165
2016-12-06T11:07:32.264Z,180
2016-12-06T11:08:40.953Z,190
2016-12-06T11:09:49.692Z,185
2016-12-06T11:10:58.379Z,190
2016-12-06T11:12:07.080Z,185
2016-12-06T11:13:15.781Z,220
2016-12-06T11:14:24.464Z,230
2016-12-06T11:15:33.148Z,205
2016-12-06T11:16:41.839Z,140
2016-12-06T11:17:50.528Z,125
2016-12-06T11:18:59.242Z,130
2016-12-06T11:20:07.929Z,130
2016-12-06T11:21:16.612Z,130
2016-12-06T11:22:25.293Z,140
2016-12-06T11:23:33.977Z,195
2016-12-06T11:24:42.664Z,215
2016-12-06T11:25:51.370Z,200
2016-12-06T11:27:00.061Z,170
2016-12-06T11:28:08.747Z,165
2016-12-06T11:29:17.437Z,195
2016-12-06T11:30:26.126Z,155
2016-12-06T11:31:34.811Z,165
2016-12-06T11:32:43.496Z,170
2016-12-06T11:33:52.504Z,140
2016-12-06T11:35:01.203Z,160
2016-12-06T11:36:09.923Z,175
2016-12-06T11:37:18.619Z,140
2016-12-06T11:38:27.300Z,120
2016-12-06T11:39:35.987Z,120
2016-12-06T11:40:44.711Z,125
2016-12-06T11:41:53.396Z,125
2016-12-06T11:43:02.084Z,125
2016-12-06T11:44:11.093Z,120
2016-12-06T11:45:19.790Z,120
2016-12-06T11:46:28.477Z,115
2016-12-06T11:47:37.164Z,115
2016-12-06T11:48:45.856Z,115
2016-12-06T11:49:54.547Z,115
2016-12-06T11:51:03.232Z,115
2016-12-06T11:52:11.917Z,120
2016-12-06T11:53:20.624Z,130
2016-12-06T11:54:29.313Z,145
2016-12-06T11:55:37.994Z,135
2016-12-06T11:56:46.679Z,130
2016-12-06T11:57:55.705Z,155
2016-12-06T11:59:04.418Z,195
2016-12-06T12:00:13.109Z,235
2016-12-06T12:01:21.795Z,210
2016-12-06T12:02:30.483Z,170
2016-12-06T12:03:39.173Z,155
2016-12-06T12:04:47.858Z,155
2016-12-06T12:05:56.547Z,170
2016-12-06T12:07:05.239Z,185
2016-12-06T12:08:13.925Z,180
2016-12-06T12:09:22.928Z,140
2016-12-06T12:10:31.617Z,130
2016-12-06T12:11:40.308Z,160
2016-12-06T12:12:48.998Z,220
2016-12-06T12:13:57.696Z,230
2016-12-06T12:15:06.379Z,215
2016-12-06T12:16:15.070Z,215
2016-12-06T12:17:23.764Z,210
2016-12-06T12:18:32.446Z,215
2016-12-06T12:19:41.133Z,205
2016-12-06T12:20:49.819Z,200
2016-12-06T12:21:58.508Z,190
2016-12-06T12:23:07.197Z,185
2016-12-06T12:24:15.912Z,190
2016-12-06T12:25:24.596Z,180
2016-12-06T12:26:33.380Z,190
2016-12-06T12:27:42.072Z,200
2016-12-06T12:28:50.785Z,200
2016-12-06T12:29:59.474Z,210
2016-12-06T12:31:08.174Z,215
2016-12-06T12:32:16.862Z,205
2016-12-06T12:33:25.557Z,205
2016-12-06T12:34:34.244Z,195
2016-12-06T12:35:42.937Z,205
2016-12-06T12:36:51.622Z,185
2016-12-06T12:38:00.310Z,165
2016-12-06T12:39:08.998Z,175
2016-12-06T12:40:18.004Z,225
2016-12-06T12:41:26.688Z,255
2016-12-06T12:42:35.379Z,240
2016-12-06T12:43:44.071Z,205
2016-12-06T12:44:52.761Z,170
2016-12-06T12:46:01.460Z,155
2016-12-06T12:47:10.521Z,135
2016-12-06T12:48:19.213Z,130
2016-12-06T12:49:28.223Z,115
2016-12-06T12:50:36.918Z,105
2016-12-06T12:51:45.615Z,100
2016-12-06T12:52:54.299Z,100
2016-12-06T12:54:02.995Z,105
2016-12-06T12:55:11.688Z,105
2016-12-06T12:56:20.383Z,105
2016-12-06T12:57:29.390Z,105
2016-12-06T12:58:38.077Z,120
2016-12-06T12:59:46.765Z,120
2016-12-06T13:00:55.459Z,115
2016-12-06T13:02:04.160Z,105
2016-12-06T13:03:12.855Z,100
2016-12-06T13:04:21.543Z,95
2016-12-06T13:05:30.228Z,85
2016-12-06T13:06:38.915Z,80
2016-12-06T13:07:47.603Z,80
2016-12-06T13:08:56.609Z,80
2016-12-06T13:10:05.300Z,70
2016-12-06T13:11:13.992Z,70
2016-12-06T13:12:22.679Z,65
2016-12-06T13:13:31.369Z,65
2016-12-06T13:14:40.054Z,60
2016-12-06T13:15:48.745Z,60
2016-12-06T13:16:57.432Z,55
2016-12-06T13:18:06.124Z,55
2016-12-06T13:19:14.816Z,55
2016-12-06T13:20:23.512Z,55
2016-12-06T13:21:32.196Z,55
2016-12-06T13:22:40.891Z,55
2016-12-06T13:23:49.584Z,55
2016-12-06T13:24:58.270Z,50
2016-12-06T13:26:06.954Z,50
2016-12-06T13:27:15.637Z,50
2016-12-06T13:28:24.320Z,45
2016-12-06T13:29:33.042Z,45
2016-12-06T13:30:41.732Z,45
2016-12-06T13:31:50.412Z,45
2016-12-06T13:32:59.096Z,45
2016-12-06T13:34:07.809Z,40
2016-12-06T13:35:16.490Z,40
2016-12-06T13:36:25.173Z,40
2016-12-06T13:37:33.856Z,40
2016-12-06T13:38:42.545Z,40
2016-12-06T13:39:51.230Z,35
2016-12-06T13:40:59.912Z,35
2016-12-06T13:42:08.600Z,35
2016-12-06T13:43:17.601Z,35
2016-12-06T13:44:26.280Z,30
2016-12-06T13:45:34.968Z,30
2016-12-06T13:46:43.651Z,30
2016-12-06T13:47:52.333Z,30
2016-12-06T13:49:01.019Z,30
2016-12-06T13:50:10.033Z,30
2016-12-06T13:51:18.720Z,30
2016-12-06T13:52:27.721Z,30
2016-12-06T13:53:36.406Z,25
2016-12-06T13:54:45.091Z,25
2016-12-06T13:55:53.774Z,25
2016-12-06T13:57:02.471Z,25
2016-12-06T13:58:11.158Z,20
2016-12-06T13:59:19.844Z,20
2016-12-06T14:00:28.524Z,20
2016-12-06T14:01:37.205Z,20
2016-12-06T14:02:45.888Z,20
2016-12-06T14:03:54.569Z,15
2016-12-06T14:05:03.265Z,15
2016-12-06T14:06:12.272Z,15
2016-12-06T14:07:20.951Z,15
2016-12-06T14:08:29.632Z,15
2016-12-06T14:09:38.314Z,10
2016-12-06T14:10:46.997Z,10
2016-12-06T14:11:55.682Z,10
2016-12-06T14:13:04.373Z,10
2016-12-06T14:14:13.061Z,10
2016-12-06T14:15:21.750Z,10
2016-12-06T14:16:30.429Z,10
2016-12-06T14:17:39.114Z,5
2016-12-06T14:18:47.799Z,5
2016-12-06T14:19:56.515Z,5
2016-12-06T14:21:05.248Z,5
2016-12-06T14:22:13.929Z,5
2016-12-06T14:23:22.612Z,5
2016-12-06T14:24:31.292Z,5
2016-12-06T14:25:39.983Z,5
2016-12-06T14:26:48.664Z,5
2016-12-06T14:27:57.344Z,0
2016-12-06T14:29:06.026Z,0
2016-12-06T14:30:14.704Z,0
2016-12-06T14:31:23.386Z,0
2016-12-06T14:32:32.080Z,0
2016-12-06T14:33:40.763Z,0
2016-12-06T14:34:49.452Z,0
2016-12-06T14:35:58.137Z,0
2016-12-06T14:37:06.824Z,0
2016-12-06T14:38:15.509Z,0
2016-12-06T14:39:24.192Z,0
2016-12-06T14:40:32.874Z,0
2016-12-06T14:41:41.563Z,0
2016-12-06T14:42:50.562Z,0
2016-12-06T14:43:59.565Z,0
2016-12-06T14:45:08.257Z,0
2016-12-06T14:46:16.936Z,0
2016-12-06T14:47:25.617Z,0
2016-12-06T14:48:34.304Z,0
2016-12-06T14:49:42.992Z,0
2016-12-06T14:50:51.676Z,0
2016-12-06T14:52:00.358Z,0
2016-12-06T14:53:09.041Z,0
2016-12-06T14:54:17.720Z,0
2016-12-06T14:55:26.406Z,0
2016-12-06T14:56:35.091Z,0
2016-12-06T14:57:43.774Z,0
2016-12-06T14:58:52.460Z,0
2016-12-06T15:00:01.145Z,0
2016-12-06T15:01:09.841Z,0
2016-12-06T15:02:18.528Z,0
2016-12-06T15:03:27.214Z,0
2016-12-06T15:04:35.895Z,0
2016-12-06T15:05:44.580Z,0
2016-12-06T15:06:53.287Z,0
2016-12-06T15:08:01.968Z,0
2016-12-06T15:09:10.653Z,0
2016-12-06T15:10:19.334Z,0
2016-12-06T15:11:28.015Z,0
2016-12-06T15:12:36.699Z,0
2016-12-06T15:13:45.698Z,0
2016-12-06T15:14:54.375Z,0
2016-12-06T15:16:03.055Z,0
2016-12-06T15:17:11.745Z,0
2016-12-06T15:18:20.431Z,0
2016-12-06T15:19:29.110Z,0
2016-12-06T15:20:37.790Z,0
2016-12-06T15:21:46.493Z,0
2016-12-06T15:22:55.179Z,0
2016-12-06T15:24:03.862Z,0
2016-12-06T15:25:12.546Z,0
2016-12-06T15:26:21.225Z,0
2016-12-06T15:27:29.909Z,0
2016-12-06T15:28:38.594Z,0
2016-12-06T15:29:47.278Z,0
2016-12-06T15:30:55.966Z,0
2016-12-06T15:32:04.646Z,0
2016-12-06T15:33:13.330Z,0
2016-12-06T15:34:22.019Z,0
2016-12-06T15:35:30.699Z,0
2016-12-06T15:36:39.383Z,0
2016-12-06T15:37:48.078Z,0
2016-12-06T15:38:56.760Z,0
2016-12-06T15:40:05.447Z,0
2016-12-06T15:41:14.136Z,0
2016-12-06T15:42:22.810Z,0
2016-12-06T15:43:31.493Z,0
2016-12-06T15:44:40.173Z,0
2016-12-06T15:45:48.852Z,0
2016-12-06T15:46:57.538Z,0
2016-12-06T15:48:06.217Z,0
2016-12-06T15:49:14.899Z,0
2016-12-06T15:50:23.583Z,0
2016-12-06T15:51:32.268Z,0
2016-12-06T15:52:40.950Z,0
2016-12-06T15:53:49.633Z,0
2016-12-06T15:54:58.330Z,0
2016-12-06T15:56:07.009Z,0
2016-12-06T15:57:15.696Z,0
2016-12-06T15:58:24.377Z,0
2016-12-06T15:59:33.061Z,0
2016-12-06T16:00:41.740Z,0
2016-12-06T16:01:50.424Z,0
2016-12-06T16:02:59.111Z,0
2016-12-06T16:04:07.791Z,0
2016-12-06T16:05:16.480Z,0
2016-12-06T16:06:25.166Z,0
2016-12-06T16:07:33.851Z,0
2016-12-06T16:08:42.537Z,0
2016-12-06T16:09:51.223Z,0
2016-12-06T16:10:59.914Z,0
2016-12-06T16:12:08.598Z,0
2016-12-06T16:13:17.278Z,0
2016-12-06T16:14:26.269Z,0
2016-12-06T16:15:34.951Z,0
2016-12-06T16:16:43.630Z,0
2016-12-06T16:17:52.314Z,0
2016-12-06T16:19:00.997Z,0
2016-12-06T16:20:09.992Z,0
2016-12-06T16:21:18.678Z,0
2016-12-06T16:22:27.358Z,0
2016-12-06T16:23:36.041Z,0
2016-12-06T16:24:44.721Z,0
2016-12-06T16:25:53.425Z,0
2016-12-06T16:27:02.104Z,0
2016-12-06T16:28:10.783Z,0
2016-12-06T16:29:19.490Z,0
2016-12-06T16:30:28.488Z,0
2016-12-06T16:31:37.174Z,0
2016-12-06T16:32:45.856Z,0
2016-12-06T16:33:54.883Z,0
2016-12-06T16:35:03.566Z,0
2016-12-06T16:36:12.246Z,0
2016-12-06T16:37:20.942Z,0